createdAt,value
2022-12-13T00:02:21.596Z,75.90
2022-12-13T00:05:24.723Z,75.90
2022-12-13T00:08:29.238Z,75.90
2022-12-13T00:11:33.220Z,76.50
2022-12-13T00:14:36.446Z,76.40
2022-12-13T00:17:39.572Z,77.20
2022-12-13T00:20:42.695Z,78.50
2022-12-13T00:23:47.856Z,79.30
2022-12-13T00:26:50.962Z,79.50
2022-12-13T00:29:54.222Z,79.60
2022-12-13T00:32:57.576Z,78.80
2022-12-13T00:36:00.804Z,78.60
2022-12-13T00:39:05.444Z,78.90
2022-12-13T00:42:08.597Z,78.40
2022-12-13T00:45:13.548Z,78.80
2022-12-13T00:48:16.852Z,79.10
2022-12-13T00:51:21.372Z,78.90
2022-12-13T00:54:25.877Z,78.90
2022-12-13T00:57:29.047Z,78.60
2022-12-13T01:00:33.354Z,79.20
2022-12-13T01:03:37.623Z,79.30
2022-12-13T01:06:42.326Z,79.90
2022-12-13T01:09:46.801Z,80.70
2022-12-13T01:12:49.913Z,80.80
2022-12-13T01:15:53.016Z,80.80
2022-12-13T01:18:57.779Z,80.80
2022-12-13T01:22:03.642Z,80.80
2022-12-13T01:25:09.214Z,81.30
2022-12-13T01:28:12.323Z,81.60
2022-12-13T01:31:17.743Z,81.60
2022-12-13T01:34:26.545Z,81.60
2022-12-13T01:37:29.983Z,81.50
2022-12-13T01:40:38.596Z,81.40
2022-12-13T01:43:56.961Z,81.60
2022-12-13T01:47:00.091Z,82.40
2022-12-13T01:50:07.463Z,82.60
2022-12-13T01:53:13.977Z,83.00
2022-12-13T01:56:22.235Z,84.00
2022-12-13T01:59:27.175Z,83.90
2022-12-13T02:02:30.634Z,84.00
2022-12-13T02:05:37.547Z,83.80
2022-12-13T02:08:42.710Z,84.00
2022-12-13T02:11:48.011Z,84.50
2022-12-13T02:14:52.794Z,84.80
2022-12-13T02:18:19.508Z,85.20
2022-12-13T02:21:28.784Z,85.30
2022-12-13T02:24:53.229Z,85.60
2022-12-13T02:28:31.491Z,85.80
2022-12-13T02:31:43.979Z,85.70
2022-12-13T02:34:52.692Z,86.00
2022-12-13T02:38:04.259Z,86.20
2022-12-13T02:41:15.963Z,86.50
2022-12-13T02:44:23.202Z,86.50
2022-12-13T02:47:30.377Z,86.90
2022-12-13T02:50:34.650Z,87.40
2022-12-13T02:53:39.635Z,87.60
2022-12-13T02:56:42.801Z,87.60
2022-12-13T02:59:46.111Z,87.30
2022-12-13T03:03:14.078Z,87.90
2022-12-13T03:06:33.894Z,88.00
2022-12-13T03:09:50.493Z,88.00
2022-12-13T03:13:19.383Z,88.10
2022-12-13T03:16:28.681Z,87.90
2022-12-13T03:19:33.234Z,87.90
2022-12-13T03:22:36.405Z,87.60
2022-12-13T03:25:39.641Z,88.20
2022-12-13T03:28:43.038Z,88.30
2022-12-13T03:31:46.775Z,88.30
2022-12-13T03:35:00.505Z,88.70
2022-12-13T03:38:05.593Z,88.10
2022-12-13T03:41:12.013Z,87.70
2022-12-13T03:44:15.401Z,88.10
2022-12-13T03:47:18.670Z,88.30
2022-12-13T03:50:27.191Z,88.70
2022-12-13T03:53:32.343Z,88.80
2022-12-13T03:56:37.372Z,88.70
2022-12-13T03:59:40.461Z,88.40
2022-12-13T04:02:43.667Z,88.40
2022-12-13T04:05:48.148Z,89.00
2022-12-13T04:08:51.548Z,89.00
2022-12-13T04:12:11.892Z,89.20
2022-12-13T04:15:15.310Z,89.10
2022-12-13T04:18:19.498Z,89.20
2022-12-13T04:21:23.984Z,89.80
2022-12-13T04:24:30.810Z,89.80
2022-12-13T04:27:35.180Z,89.70
2022-12-13T04:30:38.670Z,89.50
2022-12-13T04:33:41.751Z,89.70
2022-12-13T04:36:46.200Z,89.90
2022-12-13T04:39:49.259Z,90.10
2022-12-13T04:42:54.270Z,90.10
2022-12-13T04:45:58.877Z,90.40
2022-12-13T04:49:02.200Z,90.50
2022-12-13T04:52:06.644Z,90.50
2022-12-13T04:55:10.380Z,90.50
2022-12-13T04:58:16.121Z,90.90
2022-12-13T05:01:22.909Z,91.10
2022-12-13T05:04:32.142Z,91.40
2022-12-13T05:07:42.571Z,91.50
2022-12-13T05:10:46.071Z,91.50
2022-12-13T05:13:49.170Z,91.50
2022-12-13T05:16:53.372Z,91.50
2022-12-13T05:19:56.517Z,91.50
2022-12-13T05:23:00.996Z,91.50
2022-12-13T05:26:04.656Z,91.50
2022-12-13T05:29:07.797Z,91.50
2022-12-13T05:32:10.939Z,91.70
2022-12-13T05:35:21.981Z,91.90
2022-12-13T05:38:28.199Z,91.90
2022-12-13T05:41:35.420Z,91.80
2022-12-13T05:44:38.551Z,91.80
2022-12-13T05:47:41.644Z,92.00
2022-12-13T05:50:44.824Z,91.90
2022-12-13T05:53:53.229Z,91.80
2022-12-13T05:56:56.749Z,91.60
2022-12-13T06:00:00.051Z,91.70
2022-12-13T06:03:03.225Z,91.90
2022-12-13T06:06:08.619Z,91.90
2022-12-13T06:09:13.077Z,91.90
2022-12-13T06:12:32.485Z,91.90
2022-12-13T06:15:35.858Z,91.90
2022-12-13T06:18:47.887Z,91.90
2022-12-13T06:21:55.604Z,91.90
2022-12-13T06:25:01.625Z,92.10
2022-12-13T06:28:04.978Z,92.20
2022-12-13T06:31:08.134Z,92.20
2022-12-13T06:34:14.984Z,92.10
2022-12-13T06:37:18.392Z,92.00
2022-12-13T06:40:23.379Z,92.20
2022-12-13T06:43:26.580Z,92.30
2022-12-13T06:46:29.824Z,92.40
2022-12-13T06:49:33.034Z,92.30
2022-12-13T06:52:36.225Z,92.20
2022-12-13T06:55:40.709Z,92.10
2022-12-13T06:58:44.245Z,92.00
2022-12-13T07:01:50.723Z,92.00
2022-12-13T07:04:55.753Z,91.90
2022-12-13T07:07:58.874Z,92.30
2022-12-13T07:11:03.552Z,92.00
2022-12-13T07:14:06.636Z,92.10
2022-12-13T07:17:10.891Z,92.00
2022-12-13T07:20:15.876Z,92.00
2022-12-13T07:23:19.116Z,92.20
2022-12-13T07:26:29.309Z,92.10
2022-12-13T07:29:32.640Z,92.10
2022-12-13T07:32:35.727Z,92.00
2022-12-13T07:35:38.850Z,92.00
2022-12-13T07:38:42.372Z,92.00
2022-12-13T07:41:49.640Z,91.90
2022-12-13T07:44:52.716Z,91.70
2022-12-13T07:47:55.942Z,91.80
2022-12-13T07:51:03.183Z,91.80
2022-12-13T07:54:08.473Z,91.70
2022-12-13T07:57:13.412Z,91.60
2022-12-13T08:00:17.142Z,91.60
2022-12-13T08:03:25.166Z,91.50
2022-12-13T08:06:29.461Z,91.50
2022-12-13T08:09:32.560Z,91.40
2022-12-13T08:12:37.016Z,91.30
2022-12-13T08:15:40.161Z,91.10
2022-12-13T08:18:44.195Z,91.20
2022-12-13T08:21:56.749Z,90.60
2022-12-13T08:25:00.817Z,90.40
2022-12-13T08:28:05.649Z,89.90
2022-12-13T08:31:11.537Z,89.70
2022-12-13T08:34:14.673Z,88.60
2022-12-13T08:37:17.977Z,88.20
2022-12-13T08:40:21.446Z,88.60
2022-12-13T08:43:26.260Z,88.60
2022-12-13T08:46:29.491Z,87.60
2022-12-13T08:49:32.736Z,87.10
2022-12-13T08:52:39.421Z,86.90
2022-12-13T08:55:44.004Z,86.90
2022-12-13T08:58:51.500Z,86.30
2022-12-13T09:01:57.608Z,85.80
2022-12-13T09:05:03.680Z,86.10
2022-12-13T09:08:24.771Z,86.30
2022-12-13T09:11:34.490Z,86.30
2022-12-13T09:14:45.495Z,87.00
2022-12-13T09:17:52.208Z,87.20
2022-12-13T09:21:11.029Z,85.80
2022-12-13T09:24:23.983Z,85.10
2022-12-13T09:27:30.338Z,84.80
2022-12-13T09:30:34.969Z,83.40
2022-12-13T09:33:40.756Z,82.90
2022-12-13T09:36:45.013Z,83.00
2022-12-13T09:39:48.682Z,83.10
2022-12-13T09:43:13.712Z,82.70
2022-12-13T09:46:34.867Z,82.10
2022-12-13T09:49:53.175Z,82.50
2022-12-13T09:53:00.080Z,83.70
2022-12-13T09:56:11.024Z,84.00
2022-12-13T09:59:15.733Z,82.60
2022-12-13T10:02:26.115Z,82.00
2022-12-13T10:05:34.606Z,80.70
2022-12-13T10:08:45.809Z,80.10
2022-12-13T10:11:51.275Z,80.20
2022-12-13T10:14:58.203Z,80.50
2022-12-13T10:18:05.307Z,78.80
2022-12-13T10:21:12.730Z,79.60
2022-12-13T10:24:32.854Z,80.20
2022-12-13T10:27:41.648Z,80.10
2022-12-13T10:30:46.543Z,80.40
2022-12-13T10:33:56.639Z,80.20
2022-12-13T10:37:00.115Z,79.70
2022-12-13T10:40:04.017Z,79.90
2022-12-13T10:43:15.355Z,80.10
2022-12-13T10:46:25.288Z,79.80
2022-12-13T10:49:37.032Z,80.50
2022-12-13T10:52:48.136Z,80.40
2022-12-13T10:56:02.183Z,80.20
2022-12-13T10:59:22.741Z,79.50
2022-12-13T11:02:36.027Z,79.40
2022-12-13T11:05:40.975Z,79.00
2022-12-13T11:08:44.163Z,77.10
2022-12-13T11:11:47.437Z,76.60
2022-12-13T11:14:54.294Z,74.40
2022-12-13T11:17:59.674Z,61.30
2022-12-13T11:21:07.941Z,54.10
2022-12-13T11:24:17.623Z,51.40
2022-12-13T11:27:46.604Z,53.00
2022-12-13T11:30:58.071Z,54.50
2022-12-13T11:34:13.582Z,46.80
2022-12-13T11:37:40.717Z,38.40
2022-12-13T11:40:48.287Z,29.10
2022-12-13T11:43:56.121Z,27.00
2022-12-13T11:47:02.163Z,23.50
2022-12-13T11:50:20.510Z,21.70
2022-12-13T11:53:46.437Z,21.40
2022-12-13T11:56:52.557Z,19.80
2022-12-13T12:00:13.158Z,20.40
2022-12-13T12:03:20.500Z,23.10
2022-12-13T12:06:25.821Z,24.10
2022-12-13T12:09:31.289Z,22.50
2022-12-13T12:12:35.970Z,20.90
2022-12-13T12:15:45.990Z,20.40
2022-12-13T12:18:51.078Z,21.20
2022-12-13T12:22:16.462Z,22.60
2022-12-13T12:25:27.936Z,24.40
2022-12-13T12:28:44.660Z,23.30
2022-12-13T12:32:01.338Z,21.30
2022-12-13T12:35:18.236Z,20.30
2022-12-13T12:38:45.865Z,19.90
2022-12-13T12:42:01.635Z,18.40
2022-12-13T12:45:55.360Z,17.80
2022-12-13T12:49:09.781Z,18.20
2022-12-13T12:52:19.621Z,17.60
2022-12-13T12:55:34.067Z,18.00
2022-12-13T12:58:47.981Z,16.30
2022-12-13T13:01:58.356Z,17.30
2022-12-13T13:05:05.611Z,18.40
2022-12-13T13:08:15.435Z,20.80
2022-12-13T13:11:25.100Z,23.00
2022-12-13T13:14:33.239Z,22.80
2022-12-13T13:17:48.711Z,21.70
2022-12-13T13:21:26.741Z,21.10
2022-12-13T13:24:31.287Z,21.40
2022-12-13T13:27:40.272Z,22.90
2022-12-13T13:31:04.551Z,23.70
2022-12-13T13:34:24.413Z,23.10
2022-12-13T13:37:47.890Z,22.40
2022-12-13T13:40:51.852Z,21.50
2022-12-13T13:43:55.115Z,21.60
2022-12-13T13:47:14.426Z,21.80
2022-12-13T13:50:54.549Z,21.40
2022-12-13T13:54:37.384Z,20.70
2022-12-13T13:58:21.614Z,20.00
2022-12-13T14:02:00.992Z,19.90
2022-12-13T14:05:35.723Z,19.50
2022-12-13T14:08:49.252Z,19.90
2022-12-13T14:12:34.684Z,20.60
2022-12-13T14:16:20.558Z,21.50
2022-12-13T14:20:18.123Z,22.40
2022-12-13T14:23:40.214Z,24.40
2022-12-13T14:26:52.666Z,27.00
2022-12-13T14:29:57.917Z,29.80
2022-12-13T14:33:02.359Z,32.40
2022-12-13T14:36:06.137Z,35.10
2022-12-13T14:39:25.209Z,37.40
2022-12-13T14:42:33.456Z,39.20
2022-12-13T14:45:38.851Z,40.90
2022-12-13T14:48:47.770Z,42.00
2022-12-13T14:52:00.560Z,43.00
2022-12-13T14:55:06.225Z,43.90
2022-12-13T14:58:19.792Z,45.00
2022-12-13T15:01:29.302Z,45.80
2022-12-13T15:04:35.807Z,46.70
2022-12-13T15:07:41.367Z,47.10
2022-12-13T15:10:49.045Z,48.10
2022-12-13T15:13:52.772Z,48.70
2022-12-13T15:16:57.284Z,49.30
2022-12-13T15:20:01.788Z,50.10
2022-12-13T15:23:08.274Z,50.80
2022-12-13T15:26:29.256Z,51.30
2022-12-13T15:29:35.560Z,51.50
2022-12-13T15:32:58.725Z,52.30
2022-12-13T15:36:10.630Z,53.40
2022-12-13T15:39:18.277Z,53.70
2022-12-13T15:42:24.456Z,54.30
2022-12-13T15:45:34.966Z,55.10
2022-12-13T15:48:48.600Z,55.40
2022-12-13T15:51:58.048Z,56.40
2022-12-13T15:55:03.081Z,57.40
2022-12-13T15:58:26.854Z,59.00
2022-12-13T16:01:31.294Z,60.10
2022-12-13T16:04:34.989Z,62.00
2022-12-13T16:07:39.997Z,62.20
2022-12-13T16:10:48.458Z,62.90
2022-12-13T16:13:51.627Z,64.20
2022-12-13T16:17:08.656Z,65.60
2022-12-13T16:20:15.665Z,66.70
2022-12-13T16:23:27.016Z,68.50
2022-12-13T16:26:31.269Z,69.90
2022-12-13T16:29:34.458Z,71.00
2022-12-13T16:33:02.818Z,72.00
2022-12-13T16:36:00.867Z,73.50
2022-12-13T16:39:06.595Z,74.70
2022-12-13T16:42:09.783Z,76.20
2022-12-13T16:48:37.932Z,77.90
2022-12-13T16:51:46.502Z,78.00
2022-12-13T16:54:53.014Z,78.20
2022-12-13T16:57:59.266Z,78.90
2022-12-13T17:01:03.274Z,79.80
2022-12-13T17:04:12.861Z,80.50
2022-12-13T17:07:20.427Z,80.60
2022-12-13T17:10:25.978Z,80.50
2022-12-13T17:13:31.656Z,80.50
2022-12-13T17:16:35.603Z,80.90
2022-12-13T17:19:39.550Z,81.50
2022-12-13T17:22:44.560Z,82.60
2022-12-13T17:25:58.355Z,82.80
2022-12-13T17:29:04.442Z,82.90
2022-12-13T17:32:11.094Z,82.80
2022-12-13T17:35:18.274Z,82.70
2022-12-13T17:38:22.641Z,83.20
2022-12-13T17:41:28.020Z,83.50
2022-12-13T17:44:31.754Z,84.00
2022-12-13T17:47:35.266Z,84.20
2022-12-13T17:50:40.454Z,84.60
2022-12-13T17:53:45.359Z,84.70
2022-12-13T17:56:50.699Z,85.20
2022-12-13T17:59:54.730Z,85.50
2022-12-13T18:02:58.070Z,86.00
2022-12-13T18:06:01.824Z,86.20
2022-12-13T18:09:05.291Z,86.50
2022-12-13T18:12:11.364Z,87.40
2022-12-13T18:15:15.292Z,87.70
2022-12-13T18:18:20.492Z,87.90
2022-12-13T18:21:25.226Z,88.30
2022-12-13T18:24:31.161Z,88.30
2022-12-13T18:27:37.727Z,89.30
2022-12-13T18:30:42.293Z,88.50
2022-12-13T18:33:47.886Z,88.50
2022-12-13T18:36:52.825Z,88.90
2022-12-13T18:39:58.315Z,89.10
2022-12-13T18:43:04.340Z,89.00
2022-12-13T18:46:08.456Z,89.10
2022-12-13T18:49:13.699Z,89.10
2022-12-13T18:52:21.405Z,89.20
2022-12-13T18:55:25.804Z,89.10
2022-12-13T18:58:31.628Z,89.10
2022-12-13T19:01:35.980Z,89.00
2022-12-13T19:04:40.629Z,89.10
2022-12-13T19:07:45.901Z,89.10
2022-12-13T19:10:51.451Z,89.20
2022-12-13T19:13:58.159Z,89.10
2022-12-13T19:17:06.735Z,89.20
2022-12-13T19:20:12.593Z,89.20
2022-12-13T19:23:18.689Z,89.30
2022-12-13T19:26:23.316Z,89.40
2022-12-13T19:29:32.973Z,89.50
2022-12-13T19:32:37.624Z,89.20
2022-12-13T19:35:43.676Z,89.20
2022-12-13T19:38:47.798Z,89.70
2022-12-13T19:41:52.267Z,89.70
2022-12-13T19:44:58.961Z,90.10
2022-12-13T19:48:05.806Z,90.00
2022-12-13T19:51:12.147Z,90.00
2022-12-13T19:54:17.804Z,90.10
2022-12-13T19:57:26.857Z,90.00
2022-12-13T20:00:33.688Z,89.90
2022-12-13T20:03:42.396Z,90.10
2022-12-13T20:06:49.370Z,90.20
2022-12-13T20:09:54.519Z,90.40
2022-12-13T20:12:59.643Z,90.30
2022-12-13T20:16:09.517Z,90.60
2022-12-13T20:19:15.248Z,90.60
2022-12-13T20:22:20.152Z,91.30
2022-12-13T20:25:25.051Z,91.90
2022-12-13T20:28:29.853Z,92.10
2022-12-13T20:31:48.274Z,91.90
2022-12-13T20:34:55.148Z,92.00
2022-12-13T20:37:59.540Z,92.40
2022-12-13T20:41:05.789Z,92.20
2022-12-13T20:44:13.105Z,92.50
2022-12-13T20:47:20.857Z,92.60
2022-12-13T20:50:26.188Z,92.40
2022-12-13T20:53:33.912Z,92.20
2022-12-13T20:56:44.756Z,92.00
2022-12-13T20:59:49.405Z,92.10
2022-12-13T21:02:55.355Z,92.00
2022-12-13T21:06:00.060Z,92.10
2022-12-13T21:09:05.745Z,92.00
2022-12-13T21:12:09.967Z,92.10
2022-12-13T21:15:16.639Z,92.00
2022-12-13T21:18:21.367Z,92.00
2022-12-13T21:21:25.749Z,92.00
2022-12-13T21:24:30.017Z,92.00
2022-12-13T21:27:34.110Z,91.80
2022-12-13T21:30:37.693Z,91.90
2022-12-13T21:33:42.509Z,91.80
2022-12-13T21:36:47.670Z,91.90
2022-12-13T21:39:50.909Z,91.90
2022-12-13T21:42:53.973Z,91.90
2022-12-13T21:45:57.452Z,92.00
2022-12-13T21:49:01.977Z,92.00
2022-12-13T21:52:05.337Z,92.00
2022-12-13T21:55:37.874Z,91.90
2022-12-13T21:58:49.886Z,91.90
2022-12-13T22:02:12.982Z,91.90
2022-12-13T22:05:17.741Z,91.90
2022-12-13T22:08:20.909Z,91.90
2022-12-13T22:11:24.056Z,92.00
2022-12-13T22:14:27.315Z,92.00
2022-12-13T22:17:35.696Z,91.70
2022-12-13T22:20:40.828Z,91.80
2022-12-13T22:23:44.012Z,91.90
2022-12-13T22:26:47.165Z,91.60
2022-12-13T22:29:50.665Z,91.50
2022-12-13T22:32:54.144Z,91.40
2022-12-13T22:36:01.555Z,91.80
2022-12-13T22:39:06.081Z,91.60
2022-12-13T22:42:09.313Z,91.70
2022-12-13T22:45:12.641Z,91.70
2022-12-13T22:48:15.728Z,91.60
2022-12-13T22:51:20.965Z,91.60
2022-12-13T22:54:24.074Z,91.40
2022-12-13T22:57:27.194Z,91.30
2022-12-13T23:00:30.273Z,91.30
2022-12-13T23:03:33.448Z,91.40
2022-12-13T23:06:39.475Z,91.30
2022-12-13T23:09:42.640Z,91.10
2022-12-13T23:13:02.945Z,90.90
2022-12-13T23:16:07.362Z,90.80
2022-12-13T23:19:40.236Z,90.60
2022-12-13T23:22:36.854Z,90.80
2022-12-13T23:25:39.945Z,90.80
2022-12-13T23:28:45.038Z,90.90
2022-12-13T23:31:48.493Z,91.10
2022-12-13T23:34:52.383Z,91.20
2022-12-13T23:37:56.870Z,91.10
2022-12-13T23:41:05.397Z,90.80
2022-12-13T23:44:08.525Z,90.80
2022-12-13T23:47:11.645Z,91.10
2022-12-13T23:50:14.739Z,90.80
2022-12-13T23:53:19.258Z,90.60
2022-12-13T23:56:22.611Z,90.50
2022-12-13T23:59:26.169Z,90.50
